Byrdstown, TN (38549)

6:24 PM CST on March 01, 2015 (GMT -0600)
Highlands @ BSF | Change Station
CLOSE
Current Station
Personal Weather Station
Location: Jamestown, TN
Elevation: 1637 ft
Nearby Weather Stations
Active Advisory: Special Statement Active Notice: Public Information Statement

Elev 1637 ft 36.49 °N, 84.86 °W | Updated 9 minutes ago

Overcast
Overcast
44.2 °F
Feels Like 44 °F
N
0.0
Wind Variable Wind from West

Today
High -- | Low -- °F
--% Chance of Precip.
Yesterday
High -- | Low -- °F
Precip. -- in
6:11 AM 5:34 PM
Waxing Gibbous, 88% visible
Pressure 30.29 in
Visibility 4.0 miles
Clouds Mostly Cloudy 1000 ft
Overcast 2900 ft
Windchill 44 °F
Dew Point 44 °F
Humidity 98%
Rainfall 0.07 in
Snow Depth Not available.
UV 0 out of 12
Pollen 1.20 out of 12
Air Quality Not available.
Flu Activity Not available.
METAR KSRB 020015Z AUTO 18003KT 4SM BKN010 OVC029 09/09 A3029 RMK

More Conditions Fewer Conditions

Pressure 30.29 in
Visibility 4.0 miles
Clouds Mostly Cloudy 1000 ft
Overcast 2900 ft
Windchill 44 °F
Dew Point 44 °F
Humidity 98%
Rainfall 0.07 in
Snow Depth Not available.
UV 0 out of 12
Pollen 1.20 out of 12
Air Quality Not available.
Flu Activity Not available.
METAR KSRB 020015Z AUTO 18003KT 4SM BKN010 OVC029 09/09 A3029 RMK

More Conditions Fewer Conditions

10-Day Weather Forecast

Almanac

Astronomy

Mar. 01, 2015 Rise Set
Actual Time
Civil Twilight
Nautical Twilight
Astronomical Twilight
Moon
Length of Visible Light
Length of Day
Tomorrow will be .
, % of the Moon is Illuminated

Today's Extremes

State Highs State Lows

Community

WunderPhotos

Upload Photos

1,801,647 photos uploaded!

WunderBlogs® & News

Nearby

Air Quality

  Air Quality AQ Index Pollutant
Not available.

Snow Depth

Station Depth Elevation

Earthquake Activity

City Distance Mag. Time & Date
Minimum magnitude displayed is 2.5.

Coastal Water Temperatures

Place Temperature

Nearby Weather Stations

Special Statement
Statement as of 2:46 PM CST on March 01, 2015

... Very light freezing drizzle possible Monday morning...

As rains come to an end early Monday morning... surface temperatures
are expected to fall below freezing for areas north and west of a
line from Waverly to Lafayette... as well of patchy spots on the
Cumberland Plateau. Because of this... some freezing drizzle will
be possible in these areas. Due to sunday's warmer temperatures...
only very light ice accumulations on elevated surfaces and tree
limbs will be possible between 2 am and 8 am Monday morning. Road
surfaces should remain in good condition throughout this time
frame. Temperatures are expected to climb back above freezing
after 8 am. Please keep this in mind as you head out for the
Monday morning commute.